Terminal Aerodrome Forecast
Issued by NWS Mt. Holly, NJ

Home | Current Version | Previous Version | Text Only | Print | Product List | Glossary On
Versions: 1 2 3 4 5 6 7 8 9 10 11 12 13 14 15 16 17 18 19 20 21 22 23 24 25
000
FTAK31 PANC 230550
TAFABE
TAF
PABE 230550Z 2306/2406 29008KT P6SM SCT060 BKN200
     FM231200 22005KT P6SM OVC020
     FM231800 18013KT 2SM -SN OVC015
     FM240300 28011KT 3SM -SHSNRA BR OVC025=

USA.gov is the U.S. government's official web portal to all federal, state and local government web resources and services.